sensor_id;sensor_type;location;lat;lon;timestamp;pressure;altitude;pressure_sealevel;temperature;humidity
63691;BME280;49837;57.280;27.070;2023-05-22T00:00:22;100983.48;;;6.85;85.41
63691;BME280;49837;57.280;27.070;2023-05-22T00:01:22;100979.0;;;6.81;85.65
63691;BME280;49837;57.280;27.070;2023-05-22T00:02:22;100978.52;;;6.8;85.56
63691;BME280;49837;57.280;27.070;2023-05-22T00:03:22;100976.36;;;6.8;85.5
63691;BME280;49837;57.280;27.070;2023-05-22T00:04:23;100977.2;;;6.77;85.92
63691;BME280;49837;57.280;27.070;2023-05-22T00:05:23;100979.27;;;6.75;86.46
63691;BME280;49837;57.280;27.070;2023-05-22T00:06:24;100976.7;;;6.69;87.01
63691;BME280;49837;57.280;27.070;2023-05-22T00:07:24;100978.94;;;6.65;87.6
63691;BME280;49837;57.280;27.070;2023-05-22T00:08:25;100980.94;;;6.64;88.02
63691;BME280;49837;57.280;27.070;2023-05-22T00:09:26;100985.98;;;6.6;87.38
63691;BME280;49837;57.280;27.070;2023-05-22T00:10:26;100980.2;;;6.67;86.55
63691;BME280;49837;57.280;27.070;2023-05-22T00:11:26;100978.44;;;6.7;86.67
63691;BME280;49837;57.280;27.070;2023-05-22T00:12:27;100976.3;;;6.73;86.69
63691;BME280;49837;57.280;27.070;2023-05-22T00:13:27;100975.7;;;6.73;87.04
63691;BME280;49837;57.280;27.070;2023-05-22T00:14:28;100969.83;;;6.73;87.42
63691;BME280;49837;57.280;27.070;2023-05-22T00:15:28;100973.3;;;6.72;87.93
63691;BME280;49837;57.280;27.070;2023-05-22T00:16:28;100970.97;;;6.72;88.0
63691;BME280;49837;57.280;27.070;2023-05-22T00:17:29;100970.49;;;6.69;88.16
63691;BME280;49837;57.280;27.070;2023-05-22T00:18:29;100967.83;;;6.65;88.16
63691;BME280;49837;57.280;27.070;2023-05-22T00:19:29;100969.26;;;6.64;88.26
63691;BME280;49837;57.280;27.070;2023-05-22T00:20:30;100970.02;;;6.62;88.39
63691;BME280;49837;57.280;27.070;2023-05-22T00:21:30;100971.4;;;6.63;88.44
63691;BME280;49837;57.280;27.070;2023-05-22T00:22:31;100968.5;;;6.66;88.37
63691;BME280;49837;57.280;27.070;2023-05-22T00:23:31;100969.09;;;6.68;88.25
63691;BME280;49837;57.280;27.070;2023-05-22T00:24:31;100971.06;;;6.7;88.06
63691;BME280;49837;57.280;27.070;2023-05-22T00:25:32;100971.66;;;6.73;87.83
63691;BME280;49837;57.280;27.070;2023-05-22T00:26:32;100970.66;;;6.72;87.81
63691;BME280;49837;57.280;27.070;2023-05-22T00:27:33;100972.55;;;6.7;87.77
63691;BME280;49837;57.280;27.070;2023-05-22T00:28:33;100970.58;;;6.72;87.6
63691;BME280;49837;57.280;27.070;2023-05-22T00:29:33;100970.23;;;6.71;87.31
63691;BME280;49837;57.280;27.070;2023-05-22T00:30:35;100967.91;;;6.7;87.15
63691;BME280;49837;57.280;27.070;2023-05-22T00:31:34;100966.83;;;6.7;87.4
63691;BME280;49837;57.280;27.070;2023-05-22T00:32:34;100965.59;;;6.67;87.55
63691;BME280;49837;57.280;27.070;2023-05-22T00:33:35;100963.7;;;6.64;87.46
63691;BME280;49837;57.280;27.070;2023-05-22T00:34:35;100961.3;;;6.65;87.67
63691;BME280;49837;57.280;27.070;2023-05-22T00:35:36;100963.7;;;6.53;88.09
63691;BME280;49837;57.280;27.070;2023-05-22T00:36:36;100958.73;;;6.47;88.56
63691;BME280;49837;57.280;27.070;2023-05-22T00:37:36;100962.38;;;6.38;88.67
63691;BME280;49837;57.280;27.070;2023-05-22T00:38:37;100959.9;;;6.3;88.88
63691;BME280;49837;57.280;27.070;2023-05-22T00:39:37;100955.84;;;6.26;89.19
63691;BME280;49837;57.280;27.070;2023-05-22T00:40:37;100958.64;;;6.21;89.41
63691;BME280;49837;57.280;27.070;2023-05-22T00:41:38;100960.54;;;6.23;89.54
63691;BME280;49837;57.280;27.070;2023-05-22T00:42:38;100954.52;;;6.22;89.39
63691;BME280;49837;57.280;27.070;2023-05-22T00:43:39;100957.72;;;6.22;89.63
63691;BME280;49837;57.280;27.070;2023-05-22T00:44:39;100958.71;;;6.21;89.46
63691;BME280;49837;57.280;27.070;2023-05-22T00:45:39;100956.58;;;6.21;89.24
63691;BME280;49837;57.280;27.070;2023-05-22T00:46:40;100957.22;;;6.22;89.45
63691;BME280;49837;57.280;27.070;2023-05-22T00:47:40;100959.31;;;6.21;89.63
63691;BME280;49837;57.280;27.070;2023-05-22T00:48:41;100959.39;;;6.21;89.81
63691;BME280;49837;57.280;27.070;2023-05-22T00:49:42;100955.23;;;6.2;89.92
63691;BME280;49837;57.280;27.070;2023-05-22T00:50:41;100958.16;;;6.18;89.96
63691;BME280;49837;57.280;27.070;2023-05-22T00:51:42;100956.23;;;6.16;90.11
63691;BME280;49837;57.280;27.070;2023-05-22T00:52:42;100951.94;;;6.16;90.11
63691;BME280;49837;57.280;27.070;2023-05-22T00:53:42;100954.58;;;6.18;89.98
63691;BME280;49837;57.280;27.070;2023-05-22T00:54:43;100957.91;;;6.17;89.99
63691;BME280;49837;57.280;27.070;2023-05-22T00:55:43;100955.16;;;6.16;90.01
63691;BME280;49837;57.280;27.070;2023-05-22T00:56:44;100952.83;;;6.13;90.18
63691;BME280;49837;57.280;27.070;2023-05-22T00:57:44;100952.42;;;6.13;90.39
63691;BME280;49837;57.280;27.070;2023-05-22T00:58:44;100954.81;;;6.13;90.46
63691;BME280;49837;57.280;27.070;2023-05-22T00:59:45;100952.34;;;6.13;90.58
63691;BME280;49837;57.280;27.070;2023-05-22T01:00:45;100949.84;;;6.11;90.88
63691;BME280;49837;57.280;27.070;2023-05-22T01:01:45;100954.09;;;6.09;90.9
63691;BME280;49837;57.280;27.070;2023-05-22T01:02:46;100950.17;;;6.07;90.98
63691;BME280;49837;57.280;27.070;2023-05-22T01:03:46;100951.26;;;6.02;91.11
63691;BME280;49837;57.280;27.070;2023-05-22T01:04:47;100950.3;;;5.99;91.28
63691;BME280;49837;57.280;27.070;2023-05-22T01:05:47;100953.61;;;5.97;91.44
63691;BME280;49837;57.280;27.070;2023-05-22T01:06:47;100951.95;;;5.95;91.63
63691;BME280;49837;57.280;27.070;2023-05-22T01:07:47;100952.38;;;5.94;91.68
63691;BME280;49837;57.280;27.070;2023-05-22T01:08:48;100947.23;;;5.9;91.6
63691;BME280;49837;57.280;27.070;2023-05-22T01:09:48;100948.3;;;5.86;91.6
63691;BME280;49837;57.280;27.070;2023-05-22T01:21:43;100973.3;;;5.58;92.18
63691;BME280;49837;57.280;27.070;2023-05-22T01:31:40;100964.95;;;5.63;91.69
63691;BME280;49837;57.280;27.070;2023-05-22T01:32:42;100969.99;;;5.62;91.59
63691;BME280;49837;57.280;27.070;2023-05-22T01:33:50;100966.55;;;5.65;91.54
63691;BME280;49837;57.280;27.070;2023-05-22T01:34:44;100969.5;;;5.63;91.42
63691;BME280;49837;57.280;27.070;2023-05-22T01:35:48;100966.61;;;5.62;91.37
63691;BME280;49837;57.280;27.070;2023-05-22T01:36:47;100963.86;;;5.61;91.45
63691;BME280;49837;57.280;27.070;2023-05-22T01:37:47;100958.57;;;5.58;91.43
63691;BME280;49837;57.280;27.070;2023-05-22T01:38:48;100961.12;;;5.54;91.74
63691;BME280;49837;57.280;27.070;2023-05-22T01:39:50;100959.38;;;5.51;92.23
63691;BME280;49837;57.280;27.070;2023-05-22T01:40:49;100954.03;;;5.38;92.04
63691;BME280;49837;57.280;27.070;2023-05-22T01:41:49;100954.48;;;5.29;91.78
63691;BME280;49837;57.280;27.070;2023-05-22T01:42:50;100956.85;;;5.22;91.12
63691;BME280;49837;57.280;27.070;2023-05-22T01:43:49;100957.96;;;5.27;90.89
63691;BME280;49837;57.280;27.070;2023-05-22T01:44:50;100958.98;;;5.34;91.04
63691;BME280;49837;57.280;27.070;2023-05-22T01:45:50;100955.12;;;5.4;91.48
63691;BME280;49837;57.280;27.070;2023-05-22T01:46:51;100953.3;;;5.41;92.16
63691;BME280;49837;57.280;27.070;2023-05-22T01:47:51;100954.22;;;5.43;92.22
63691;BME280;49837;57.280;27.070;2023-05-22T01:48:51;100949.6;;;5.46;91.88
63691;BME280;49837;57.280;27.070;2023-05-22T01:49:52;100945.45;;;5.45;91.48
63691;BME280;49837;57.280;27.070;2023-05-22T01:50:53;100945.78;;;5.44;91.61
63691;BME280;49837;57.280;27.070;2023-05-22T01:52:18;100947.28;;;5.45;91.97
63691;BME280;49837;57.280;27.070;2023-05-22T01:53:17;100948.3;;;5.51;92.16
63691;BME280;49837;57.280;27.070;2023-05-22T01:55:08;100946.64;;;5.55;92.03
63691;BME280;49837;57.280;27.070;2023-05-22T01:56:06;100944.09;;;5.57;91.73
63691;BME280;49837;57.280;27.070;2023-05-22T01:59:25;100938.56;;;5.63;91.61
63691;BME280;49837;57.280;27.070;2023-05-22T02:00:18;100938.96;;;5.6;91.7
63691;BME280;49837;57.280;27.070;2023-05-22T02:01:18;100937.23;;;5.61;91.52
63691;BME280;49837;57.280;27.070;2023-05-22T02:02:18;100939.3;;;5.56;91.47
63691;BME280;49837;57.280;27.070;2023-05-22T02:03:21;100938.52;;;5.53;91.43
63691;BME280;49837;57.280;27.070;2023-05-22T02:04:20;100938.43;;;5.51;91.5
63691;BME280;49837;57.280;27.070;2023-05-22T02:05:20;100935.39;;;5.51;91.5
63691;BME280;49837;57.280;27.070;2023-05-22T02:06:20;100933.9;;;5.54;91.24
63691;BME280;49837;57.280;27.070;2023-05-22T02:07:21;100936.65;;;5.57;90.82
63691;BME280;49837;57.280;27.070;2023-05-22T02:08:21;100935.06;;;5.57;90.4
63691;BME280;49837;57.280;27.070;2023-05-22T02:09:22;100936.54;;;5.56;90.16
63691;BME280;49837;57.280;27.070;2023-05-22T02:10:24;100939.19;;;5.56;90.24
63691;BME280;49837;57.280;27.070;2023-05-22T02:11:25;100936.36;;;5.5;90.4
63691;BME280;49837;57.280;27.070;2023-05-22T02:12:24;100936.52;;;5.44;90.67
63691;BME280;49837;57.280;27.070;2023-05-22T02:13:24;100938.62;;;5.38;90.38
63691;BME280;49837;57.280;27.070;2023-05-22T02:14:25;100938.54;;;5.31;91.11
63691;BME280;49837;57.280;27.070;2023-05-22T02:15:25;100939.49;;;5.24;91.64
63691;BME280;49837;57.280;27.070;2023-05-22T02:16:25;100932.48;;;5.28;91.6
63691;BME280;49837;57.280;27.070;2023-05-22T02:17:26;100934.15;;;5.28;91.75
63691;BME280;49837;57.280;27.070;2023-05-22T02:18:26;100932.2;;;5.24;91.91
63691;BME280;49837;57.280;27.070;2023-05-22T02:19:27;100934.67;;;5.21;92.16
63691;BME280;49837;57.280;27.070;2023-05-22T02:20:27;100936.77;;;5.23;92.39
63691;BME280;49837;57.280;27.070;2023-05-22T02:21:27;100936.42;;;5.2;92.5
63691;BME280;49837;57.280;27.070;2023-05-22T02:22:27;100938.05;;;5.18;92.21
63691;BME280;49837;57.280;27.070;2023-05-22T02:23:28;100935.68;;;5.22;92.52
63691;BME280;49837;57.280;27.070;2023-05-22T02:24:31;100935.12;;;5.31;92.54
63691;BME280;49837;57.280;27.070;2023-05-22T02:25:29;100937.78;;;5.33;92.42
63691;BME280;49837;57.280;27.070;2023-05-22T02:26:29;100934.04;;;5.27;92.35
63691;BME280;49837;57.280;27.070;2023-05-22T02:27:29;100932.05;;;5.25;92.68
63691;BME280;49837;57.280;27.070;2023-05-22T02:28:30;100930.79;;;5.21;92.8
63691;BME280;49837;57.280;27.070;2023-05-22T02:29:30;100929.95;;;5.17;93.01
63691;BME280;49837;57.280;27.070;2023-05-22T02:30:30;100933.03;;;5.21;93.18
63691;BME280;49837;57.280;27.070;2023-05-22T02:31:31;100930.22;;;5.22;93.3
63691;BME280;49837;57.280;27.070;2023-05-22T02:32:31;100933.91;;;5.18;93.26
63691;BME280;49837;57.280;27.070;2023-05-22T02:33:31;100927.62;;;5.17;92.95
63691;BME280;49837;57.280;27.070;2023-05-22T02:34:32;100929.64;;;5.19;92.3
63691;BME280;49837;57.280;27.070;2023-05-22T02:35:32;100931.38;;;5.22;91.88
63691;BME280;49837;57.280;27.070;2023-05-22T02:36:33;100926.2;;;5.26;92.01
63691;BME280;49837;57.280;27.070;2023-05-22T02:37:33;100930.07;;;5.25;92.21
63691;BME280;49837;57.280;27.070;2023-05-22T02:38:33;100928.26;;;5.26;92.49
63691;BME280;49837;57.280;27.070;2023-05-22T02:39:34;100926.36;;;5.27;92.61
63691;BME280;49837;57.280;27.070;2023-05-22T02:40:34;100924.88;;;5.28;92.66
63691;BME280;49837;57.280;27.070;2023-05-22T02:41:34;100924.61;;;5.26;92.55
63691;BME280;49837;57.280;27.070;2023-05-22T02:42:35;100923.38;;;5.28;92.44
63691;BME280;49837;57.280;27.070;2023-05-22T02:43:35;100925.81;;;5.34;92.13
63691;BME280;49837;57.280;27.070;2023-05-22T02:44:36;100922.66;;;5.36;91.84
63691;BME280;49837;57.280;27.070;2023-05-22T02:45:36;100923.19;;;5.4;91.56
63691;BME280;49837;57.280;27.070;2023-05-22T02:46:36;100922.12;;;5.42;91.41
63691;BME280;49837;57.280;27.070;2023-05-22T02:47:37;100922.52;;;5.36;91.42
63691;BME280;49837;57.280;27.070;2023-05-22T02:48:37;100920.25;;;5.27;91.71
63691;BME280;49837;57.280;27.070;2023-05-22T02:49:38;100920.45;;;5.22;92.03
63691;BME280;49837;57.280;27.070;2023-05-22T02:50:38;100917.66;;;5.23;92.14
63691;BME280;49837;57.280;27.070;2023-05-22T02:51:38;100919.06;;;5.24;92.23
63691;BME280;49837;57.280;27.070;2023-05-22T02:52:38;100921.23;;;5.26;92.23
63691;BME280;49837;57.280;27.070;2023-05-22T02:53:39;100921.61;;;5.22;92.3
63691;BME280;49837;57.280;27.070;2023-05-22T02:54:39;100922.37;;;5.2;92.47
63691;BME280;49837;57.280;27.070;2023-05-22T02:55:42;100920.22;;;5.21;92.33
63691;BME280;49837;57.280;27.070;2023-05-22T02:56:41;100920.88;;;5.25;92.38
63691;BME280;49837;57.280;27.070;2023-05-22T02:57:40;100921.31;;;5.27;92.29
63691;BME280;49837;57.280;27.070;2023-05-22T02:58:41;100919.73;;;5.25;92.26
63691;BME280;49837;57.280;27.070;2023-05-22T02:59:41;100917.49;;;5.26;92.41
63691;BME280;49837;57.280;27.070;2023-05-22T03:00:42;100920.16;;;5.29;92.45
63691;BME280;49837;57.280;27.070;2023-05-22T03:01:42;100923.39;;;5.29;92.45
63691;BME280;49837;57.280;27.070;2023-05-22T03:02:42;100922.47;;;5.25;92.54
63691;BME280;49837;57.280;27.070;2023-05-22T03:03:43;100921.8;;;5.26;92.54
63691;BME280;49837;57.280;27.070;2023-05-22T03:04:43;100927.67;;;5.26;92.53
63691;BME280;49837;57.280;27.070;2023-05-22T03:05:43;100924.6;;;5.25;92.52
63691;BME280;49837;57.280;27.070;2023-05-22T03:06:44;100923.36;;;5.24;92.68
63691;BME280;49837;57.280;27.070;2023-05-22T03:07:44;100921.56;;;5.26;92.96
63691;BME280;49837;57.280;27.070;2023-05-22T03:08:44;100925.11;;;5.25;92.96
63691;BME280;49837;57.280;27.070;2023-05-22T03:09:45;100924.36;;;5.25;92.64
63691;BME280;49837;57.280;27.070;2023-05-22T03:10:45;100922.05;;;5.28;92.38
63691;BME280;49837;57.280;27.070;2023-05-22T03:11:46;100920.58;;;5.28;92.44
63691;BME280;49837;57.280;27.070;2023-05-22T03:12:46;100920.97;;;5.27;92.55
63691;BME280;49837;57.280;27.070;2023-05-22T03:13:46;100919.4;;;5.26;92.4
63691;BME280;49837;57.280;27.070;2023-05-22T03:14:47;100917.74;;;5.25;92.25
63691;BME280;49837;57.280;27.070;2023-05-22T03:15:47;100914.02;;;5.22;92.27
63691;BME280;49837;57.280;27.070;2023-05-22T03:16:48;100920.8;;;5.26;92.25
63691;BME280;49837;57.280;27.070;2023-05-22T03:17:48;100918.09;;;5.3;92.55
63691;BME280;49837;57.280;27.070;2023-05-22T03:19:53;100920.56;;;5.31;92.41
63691;BME280;49837;57.280;27.070;2023-05-22T03:20:53;100922.56;;;5.33;92.13
63691;BME280;49837;57.280;27.070;2023-05-22T03:21:54;100922.92;;;5.36;92.02
63691;BME280;49837;57.280;27.070;2023-05-22T03:22:54;100922.02;;;5.4;91.85
63691;BME280;49837;57.280;27.070;2023-05-22T03:23:55;100924.17;;;5.43;91.9
63691;BME280;49837;57.280;27.070;2023-05-22T03:24:55;100923.38;;;5.48;91.91
63691;BME280;49837;57.280;27.070;2023-05-22T03:25:55;100925.17;;;5.48;91.85
63691;BME280;49837;57.280;27.070;2023-05-22T03:26:56;100921.05;;;5.48;91.86
63691;BME280;49837;57.280;27.070;2023-05-22T03:27:56;100925.52;;;5.52;91.88
63691;BME280;49837;57.280;27.070;2023-05-22T03:28:57;100918.86;;;5.6;91.82
63691;BME280;49837;57.280;27.070;2023-05-22T03:29:57;100920.86;;;5.69;91.59
63691;BME280;49837;57.280;27.070;2023-05-22T03:30:57;100918.32;;;5.77;91.34
63691;BME280;49837;57.280;27.070;2023-05-22T03:31:58;100922.3;;;5.87;91.22
63691;BME280;49837;57.280;27.070;2023-05-22T03:32:58;100921.47;;;5.92;90.88
63691;BME280;49837;57.280;27.070;2023-05-22T03:33:59;100920.36;;;6.0;90.71
63691;BME280;49837;57.280;27.070;2023-05-22T03:34:59;100917.39;;;6.08;90.4
63691;BME280;49837;57.280;27.070;2023-05-22T03:35:59;100918.72;;;6.1;90.22
63691;BME280;49837;57.280;27.070;2023-05-22T03:36:59;100919.79;;;6.13;90.14
63691;BME280;49837;57.280;27.070;2023-05-22T03:38:00;100922.87;;;6.17;90.09
63691;BME280;49837;57.280;27.070;2023-05-22T03:39:03;100918.47;;;6.22;90.29
63691;BME280;49837;57.280;27.070;2023-05-22T03:40:02;100922.93;;;6.23;90.2
63691;BME280;49837;57.280;27.070;2023-05-22T03:41:01;100918.72;;;6.26;89.8
63691;BME280;49837;57.280;27.070;2023-05-22T03:42:02;100921.46;;;6.3;89.52
63691;BME280;49837;57.280;27.070;2023-05-22T03:43:02;100918.38;;;6.32;89.33
63691;BME280;49837;57.280;27.070;2023-05-22T03:44:03;100915.5;;;6.36;89.21
63691;BME280;49837;57.280;27.070;2023-05-22T03:45:03;100916.07;;;6.37;89.17
63691;BME280;49837;57.280;27.070;2023-05-22T03:46:03;100916.64;;;6.38;89.22
63691;BME280;49837;57.280;27.070;2023-05-22T03:47:04;100916.95;;;6.41;89.42
63691;BME280;49837;57.280;27.070;2023-05-22T03:48:04;100914.48;;;6.45;89.46
63691;BME280;49837;57.280;27.070;2023-05-22T03:49:04;100914.3;;;6.47;89.33
63691;BME280;49837;57.280;27.070;2023-05-22T03:50:05;100912.15;;;6.5;89.09
63691;BME280;49837;57.280;27.070;2023-05-22T03:51:05;100910.74;;;6.54;89.24
63691;BME280;49837;57.280;27.070;2023-05-22T03:52:08;100911.83;;;6.56;89.36
63691;BME280;49837;57.280;27.070;2023-05-22T03:53:06;100910.5;;;6.59;89.34
63691;BME280;49837;57.280;27.070;2023-05-22T03:54:06;100912.45;;;6.66;89.04
63691;BME280;49837;57.280;27.070;2023-05-22T03:55:08;100909.89;;;6.62;88.97
63691;BME280;49837;57.280;27.070;2023-05-22T03:56:07;100908.34;;;6.6;89.21
63691;BME280;49837;57.280;27.070;2023-05-22T03:57:08;100908.73;;;6.6;89.45
63691;BME280;49837;57.280;27.070;2023-05-22T03:58:08;100910.66;;;6.61;89.48
63691;BME280;49837;57.280;27.070;2023-05-22T03:59:08;100909.73;;;6.66;89.5
63691;BME280;49837;57.280;27.070;2023-05-22T04:00:10;100907.59;;;6.66;89.46
63691;BME280;49837;57.280;27.070;2023-05-22T04:01:09;100910.38;;;6.75;89.34
63691;BME280;49837;57.280;27.070;2023-05-22T04:02:10;100912.19;;;6.81;89.12
63691;BME280;49837;57.280;27.070;2023-05-22T04:03:10;100911.36;;;6.83;89.01
63691;BME280;49837;57.280;27.070;2023-05-22T04:04:10;100906.03;;;6.82;88.9
63691;BME280;49837;57.280;27.070;2023-05-22T04:05:11;100907.22;;;6.82;89.05
63691;BME280;49837;57.280;27.070;2023-05-22T04:06:11;100906.69;;;6.88;89.12
63691;BME280;49837;57.280;27.070;2023-05-22T04:07:11;100903.6;;;6.93;88.89
63691;BME280;49837;57.280;27.070;2023-05-22T04:08:12;100902.36;;;6.96;88.81
63691;BME280;49837;57.280;27.070;2023-05-22T04:09:14;100898.5;;;7.04;88.68
63691;BME280;49837;57.280;27.070;2023-05-22T04:10:13;100900.64;;;7.17;88.34
63691;BME280;49837;57.280;27.070;2023-05-22T04:11:13;100900.09;;;7.25;88.15
63691;BME280;49837;57.280;27.070;2023-05-22T04:12:14;100899.66;;;7.27;87.88
63691;BME280;49837;57.280;27.070;2023-05-22T04:13:15;100897.62;;;7.21;87.72
63691;BME280;49837;57.280;27.070;2023-05-22T04:14:14;100899.71;;;7.2;87.92
63691;BME280;49837;57.280;27.070;2023-05-22T04:15:15;100902.06;;;7.28;87.98
63691;BME280;49837;57.280;27.070;2023-05-22T04:16:15;100903.95;;;7.32;87.98
63691;BME280;49837;57.280;27.070;2023-05-22T04:17:15;100903.2;;;7.38;88.08
63691;BME280;49837;57.280;27.070;2023-05-22T04:18:16;100903.09;;;7.38;88.26
63691;BME280;49837;57.280;27.070;2023-05-22T04:19:16;100905.06;;;7.45;88.31
63691;BME280;49837;57.280;27.070;2023-05-22T04:20:17;100907.56;;;7.43;88.31
63691;BME280;49837;57.280;27.070;2023-05-22T04:21:17;100909.03;;;7.46;88.49
63691;BME280;49837;57.280;27.070;2023-05-22T04:22:17;100911.49;;;7.53;89.08
63691;BME280;49837;57.280;27.070;2023-05-22T04:23:18;100906.73;;;7.6;89.21
63691;BME280;49837;57.280;27.070;2023-05-22T04:24:18;100908.41;;;7.71;88.98
63691;BME280;49837;57.280;27.070;2023-05-22T04:25:19;100905.34;;;7.8;88.89
63691;BME280;49837;57.280;27.070;2023-05-22T04:26:19;100901.88;;;7.9;88.36
63691;BME280;49837;57.280;27.070;2023-05-22T04:27:19;100899.69;;;8.04;87.8
63691;BME280;49837;57.280;27.070;2023-05-22T04:28:20;100899.12;;;8.14;87.27
63691;BME280;49837;57.280;27.070;2023-05-22T04:29:20;100898.25;;;8.17;87.22
63691;BME280;49837;57.280;27.070;2023-05-22T04:30:20;100898.59;;;8.17;87.14
63691;BME280;49837;57.280;27.070;2023-05-22T04:31:21;100897.85;;;8.28;86.97
63691;BME280;49837;57.280;27.070;2023-05-22T04:32:21;100900.47;;;8.33;86.71
63691;BME280;49837;57.280;27.070;2023-05-22T04:33:22;100903.92;;;8.47;86.47
63691;BME280;49837;57.280;27.070;2023-05-22T04:34:22;100901.89;;;8.52;86.27
63691;BME280;49837;57.280;27.070;2023-05-22T04:35:22;100903.17;;;8.5;86.19
63691;BME280;49837;57.280;27.070;2023-05-22T04:36:23;100895.63;;;8.42;86.24
63691;BME280;49837;57.280;27.070;2023-05-22T04:37:23;100895.91;;;8.4;86.49
63691;BME280;49837;57.280;27.070;2023-05-22T04:38:23;100903.13;;;8.41;86.4
63691;BME280;49837;57.280;27.070;2023-05-22T04:39:24;100895.02;;;8.45;86.33
63691;BME280;49837;57.280;27.070;2023-05-22T04:40:24;100899.16;;;8.52;86.18
63691;BME280;49837;57.280;27.070;2023-05-22T04:41:25;100899.03;;;8.57;86.17
63691;BME280;49837;57.280;27.070;2023-05-22T04:42:25;100898.99;;;8.52;86.25
63691;BME280;49837;57.280;27.070;2023-05-22T04:43:25;100905.97;;;8.61;86.08
63691;BME280;49837;57.280;27.070;2023-05-22T04:44:26;100912.34;;;8.62;85.76
63691;BME280;49837;57.280;27.070;2023-05-22T04:45:26;100910.45;;;8.69;86.41
63691;BME280;49837;57.280;27.070;2023-05-22T04:46:27;100908.47;;;8.69;85.95
63691;BME280;49837;57.280;27.070;2023-05-22T04:47:27;100905.54;;;8.8;85.24
63691;BME280;49837;57.280;27.070;2023-05-22T04:48:27;100910.63;;;8.93;84.8
63691;BME280;49837;57.280;27.070;2023-05-22T04:49:28;100908.89;;;8.97;84.33
63691;BME280;49837;57.280;27.070;2023-05-22T04:50:29;100910.14;;;9.0;84.31
63691;BME280;49837;57.280;27.070;2023-05-22T04:51:29;100913.73;;;9.12;84.4
63691;BME280;49837;57.280;27.070;2023-05-22T04:52:29;100917.45;;;9.21;84.3
63691;BME280;49837;57.280;27.070;2023-05-22T04:53:29;100913.02;;;9.24;84.2
63691;BME280;49837;57.280;27.070;2023-05-22T04:54:30;100912.59;;;9.36;84.29
63691;BME280;49837;57.280;27.070;2023-05-22T04:55:30;100912.46;;;9.41;84.2
63691;BME280;49837;57.280;27.070;2023-05-22T04:56:31;100915.97;;;9.47;83.57
63691;BME280;49837;57.280;27.070;2023-05-22T04:57:33;100913.38;;;9.47;83.54
63691;BME280;49837;57.280;27.070;2023-05-22T04:58:33;100913.99;;;9.49;83.08
63691;BME280;49837;57.280;27.070;2023-05-22T04:59:35;100910.61;;;9.43;83.03
63691;BME280;49837;57.280;27.070;2023-05-22T05:00:34;100917.09;;;9.55;83.08
63691;BME280;49837;57.280;27.070;2023-05-22T05:01:35;100913.58;;;9.63;82.88
63691;BME280;49837;57.280;27.070;2023-05-22T05:02:35;100913.48;;;9.69;83.3
63691;BME280;49837;57.280;27.070;2023-05-22T05:03:35;100907.82;;;9.75;83.68
63691;BME280;49837;57.280;27.070;2023-05-22T05:04:36;100908.6;;;9.78;83.85
63691;BME280;49837;57.280;27.070;2023-05-22T05:05:36;100906.58;;;9.75;84.75
63691;BME280;49837;57.280;27.070;2023-05-22T05:06:37;100910.28;;;9.73;84.28
63691;BME280;49837;57.280;27.070;2023-05-22T05:07:38;100907.26;;;9.79;84.09
63691;BME280;49837;57.280;27.070;2023-05-22T05:08:37;100906.14;;;9.82;83.88
63691;BME280;49837;57.280;27.070;2023-05-22T05:09:38;100903.97;;;9.89;83.79
63691;BME280;49837;57.280;27.070;2023-05-22T05:10:38;100903.46;;;9.94;83.65
63691;BME280;49837;57.280;27.070;2023-05-22T05:11:39;100906.98;;;9.97;83.66
63691;BME280;49837;57.280;27.070;2023-05-22T05:12:39;100903.98;;;9.99;83.84
63691;BME280;49837;57.280;27.070;2023-05-22T05:13:39;100907.08;;;9.97;83.68
63691;BME280;49837;57.280;27.070;2023-05-22T05:14:40;100905.34;;;10.02;83.29
63691;BME280;49837;57.280;27.070;2023-05-22T05:15:40;100902.73;;;10.14;82.73
63691;BME280;49837;57.280;27.070;2023-05-22T05:16:41;100907.42;;;10.27;82.53
63691;BME280;49837;57.280;27.070;2023-05-22T05:17:41;100897.32;;;10.4;82.16
63691;BME280;49837;57.280;27.070;2023-05-22T05:18:42;100903.65;;;10.68;81.62
63691;BME280;49837;57.280;27.070;2023-05-22T05:19:42;100901.0;;;10.71;81.08
63691;BME280;49837;57.280;27.070;2023-05-22T05:20:42;100904.52;;;10.63;81.37
63691;BME280;49837;57.280;27.070;2023-05-22T05:21:43;100903.14;;;10.65;81.48
63691;BME280;49837;57.280;27.070;2023-05-22T05:22:43;100895.22;;;10.82;80.65
63691;BME280;49837;57.280;27.070;2023-05-22T05:23:44;100894.25;;;10.8;80.46
63691;BME280;49837;57.280;27.070;2023-05-22T05:24:44;100895.88;;;10.73;80.16
63691;BME280;49837;57.280;27.070;2023-05-22T05:25:44;100889.98;;;10.85;80.06
63691;BME280;49837;57.280;27.070;2023-05-22T05:26:45;100886.31;;;11.06;80.11
63691;BME280;49837;57.280;27.070;2023-05-22T05:27:46;100891.16;;;11.22;79.94
63691;BME280;49837;57.280;27.070;2023-05-22T05:28:46;100885.43;;;11.41;79.81
63691;BME280;49837;57.280;27.070;2023-05-22T05:29:46;100882.41;;;11.68;79.73
63691;BME280;49837;57.280;27.070;2023-05-22T05:30:47;100880.2;;;11.94;79.25
63691;BME280;49837;57.280;27.070;2023-05-22T05:31:47;100879.64;;;12.28;78.45
63691;BME280;49837;57.280;27.070;2023-05-22T05:32:47;100876.89;;;12.4;77.56
63691;BME280;49837;57.280;27.070;2023-05-22T05:33:48;100875.75;;;12.14;77.17
63691;BME280;49837;57.280;27.070;2023-05-22T05:34:48;100878.41;;;12.37;78.23
63691;BME280;49837;57.280;27.070;2023-05-22T05:35:49;100875.73;;;12.47;76.69
63691;BME280;49837;57.280;27.070;2023-05-22T05:36:49;100878.81;;;12.37;76.05
63691;BME280;49837;57.280;27.070;2023-05-22T05:37:50;100878.22;;;12.25;76.25
63691;BME280;49837;57.280;27.070;2023-05-22T05:38:50;100876.22;;;12.35;76.28
63691;BME280;49837;57.280;27.070;2023-05-22T05:39:51;100883.3;;;12.52;75.87
63691;BME280;49837;57.280;27.070;2023-05-22T05:40:51;100882.66;;;12.78;75.24